createdAt,value
2023-01-20T00:00:17.268Z,19.25
2023-01-20T00:05:24.856Z,17.80
2023-01-20T00:10:30.196Z,18.73
2023-01-20T00:15:35.216Z,17.95
2023-01-20T00:20:42.905Z,20.17
2023-01-20T00:25:47.968Z,18.90
2023-01-20T00:30:52.984Z,19.58
2023-01-20T00:36:00.599Z,15.70
2023-01-20T00:41:05.659Z,14.60
2023-01-20T00:46:11.133Z,13.30
2023-01-20T00:51:18.820Z,17.65
2023-01-20T00:56:23.946Z,16.95
2023-01-20T01:01:29.133Z,17.00
2023-01-20T01:06:36.837Z,17.30
2023-01-20T01:11:41.845Z,18.15
2023-01-20T01:16:47.367Z,17.15
2023-01-20T01:21:55.019Z,17.63
2023-01-20T01:27:00.252Z,15.48
2023-01-20T01:32:05.348Z,17.20
2023-01-20T01:37:12.938Z,16.15
2023-01-20T01:42:20.047Z,13.60
2023-01-20T01:47:25.073Z,15.95
2023-01-20T01:52:32.746Z,19.10
2023-01-20T01:57:38.337Z,17.70
2023-01-20T02:02:44.907Z,17.30
2023-01-20T02:07:52.512Z,19.00
2023-01-20T02:12:58.029Z,19.45
2023-01-20T02:18:16.395Z,14.43
2023-01-20T02:23:38.175Z,19.27
2023-01-20T02:29:04.216Z,19.13
2023-01-20T02:34:16.896Z,21.17
2023-01-20T02:39:27.505Z,21.27
2023-01-20T02:44:37.788Z,18.75
2023-01-20T02:49:49.736Z,19.70
2023-01-20T02:54:57.021Z,21.70
2023-01-20T03:00:10.157Z,22.75
2023-01-20T03:05:20.433Z,19.10
2023-01-20T03:10:28.275Z,21.17
2023-01-20T03:15:38.003Z,23.05
2023-01-20T03:20:45.590Z,25.13
2023-01-20T03:25:52.329Z,25.17
2023-01-20T03:30:58.685Z,23.38
2023-01-20T03:36:06.592Z,25.42
2023-01-20T03:41:19.602Z,22.40
2023-01-20T03:46:30.922Z,22.67
2023-01-20T03:51:43.599Z,25.85
2023-01-20T03:56:54.386Z,24.20
2023-01-20T04:02:00.032Z,22.33
2023-01-20T04:07:09.056Z,21.95
2023-01-20T04:12:14.222Z,22.63
2023-01-20T04:17:19.233Z,23.83
2023-01-20T04:22:30.344Z,23.75
2023-01-20T04:27:35.350Z,23.35
2023-01-20T04:32:40.420Z,25.63
2023-01-20T04:37:48.253Z,22.27
2023-01-20T04:42:53.493Z,27.00
2023-01-20T04:47:58.660Z,24.92
2023-01-20T04:53:06.345Z,23.55
2023-01-20T04:58:12.608Z,21.45
2023-01-20T05:03:17.701Z,20.90
2023-01-20T05:08:25.491Z,23.25
2023-01-20T05:13:30.721Z,24.42
2023-01-20T05:18:35.949Z,22.60
2023-01-20T05:23:43.618Z,29.65
2023-01-20T05:28:49.536Z,28.15
2023-01-20T05:33:54.685Z,26.65
2023-01-20T05:39:02.459Z,17.30
2023-01-20T05:44:07.838Z,36.78
2023-01-20T05:49:14.451Z,25.80
2023-01-20T05:54:22.610Z,29.95
2023-01-20T05:59:28.206Z,25.10
2023-01-20T06:04:33.254Z,26.27
2023-01-20T06:09:40.938Z,24.70
2023-01-20T06:14:49.685Z,26.95
2023-01-20T06:19:54.941Z,24.23
2023-01-20T06:25:02.727Z,24.42
2023-01-20T06:30:08.409Z,23.67
2023-01-20T06:35:13.718Z,20.60
2023-01-20T06:40:22.191Z,22.92
2023-01-20T06:45:27.466Z,22.80
2023-01-20T06:50:33.181Z,25.58
2023-01-20T06:55:41.075Z,24.20
2023-01-20T07:00:46.381Z,24.13
2023-01-20T07:05:57.952Z,26.73
2023-01-20T07:11:08.895Z,31.42
2023-01-20T07:16:16.438Z,26.35
2023-01-20T07:21:25.280Z,39.67
2023-01-20T07:26:36.202Z,40.03
2023-01-20T07:31:43.257Z,32.58
2023-01-20T07:43:20.681Z,28.98
2023-01-20T07:53:57.056Z,29.67
2023-01-20T07:59:43.621Z,28.35
2023-01-20T08:28:48.836Z,28.00
2023-01-20T08:34:12.895Z,30.40
2023-01-20T08:39:23.440Z,35.38
2023-01-20T08:44:33.525Z,34.33
2023-01-20T08:49:38.906Z,33.50
2023-01-20T08:54:47.211Z,35.80
2023-01-20T08:59:53.107Z,35.60
2023-01-20T09:04:58.992Z,36.05
2023-01-20T09:10:08.535Z,39.63
2023-01-20T09:15:19.442Z,32.58
2023-01-20T09:20:26.684Z,34.35
2023-01-20T09:25:35.285Z,42.80
2023-01-20T09:30:43.090Z,37.03
2023-01-20T09:35:49.106Z,32.92
2023-01-20T09:41:20.741Z,39.28
2023-01-20T09:46:37.170Z,39.67
2023-01-20T09:52:01.621Z,40.03
2023-01-20T09:57:13.062Z,40.60
2023-01-20T10:02:25.507Z,31.52
2023-01-20T10:07:40.987Z,37.38
2023-01-20T10:12:51.855Z,36.47
2023-01-20T10:18:00.753Z,34.50
2023-01-20T10:23:13.105Z,30.98
2023-01-20T10:28:31.104Z,36.63
2023-01-20T10:33:41.271Z,35.15
2023-01-20T10:38:53.570Z,35.28
2023-01-20T10:44:05.162Z,40.15
2023-01-20T10:49:36.184Z,45.17
2023-01-20T10:54:47.126Z,35.50
2023-01-20T10:59:58.215Z,28.55
2023-01-20T11:05:07.509Z,30.75
2023-01-20T11:10:18.979Z,34.22
2023-01-20T11:15:53.324Z,34.03
2023-01-20T11:21:02.591Z,35.35
2023-01-20T11:26:16.803Z,35.00
2023-01-20T11:31:26.623Z,26.00
2023-01-20T11:36:39.001Z,23.38
2023-01-20T11:41:46.241Z,28.02
2023-01-20T11:46:59.410Z,28.98
2023-01-20T11:52:27.369Z,29.42
2023-01-20T11:57:34.301Z,25.95
2023-01-20T12:02:43.085Z,30.38
2023-01-20T12:07:51.139Z,26.05
2023-01-20T12:13:00.245Z,28.42
2023-01-20T12:18:12.328Z,34.63
2023-01-20T12:23:23.428Z,36.33
2023-01-20T12:28:38.475Z,41.10
2023-01-20T12:33:50.320Z,37.67
2023-01-20T12:39:07.461Z,31.63
2023-01-20T12:44:21.161Z,32.13
2023-01-20T12:49:41.806Z,33.47
2023-01-20T12:55:15.118Z,26.88
2023-01-20T13:00:56.406Z,30.67
2023-01-20T13:06:43.444Z,27.92
2023-01-20T13:12:09.484Z,29.35
2023-01-20T13:17:20.641Z,35.05
2023-01-20T13:22:30.290Z,25.67
2023-01-20T13:27:41.324Z,36.25
2023-01-20T13:33:05.979Z,36.03
2023-01-20T13:56:25.124Z,37.00
2023-01-20T14:01:32.716Z,27.35
2023-01-20T14:13:35.404Z,30.92
2023-01-20T14:19:29.124Z,28.75
2023-01-20T14:24:37.784Z,24.00
2023-01-20T14:30:13.083Z,23.60
2023-01-20T14:41:35.762Z,21.58
2023-01-20T14:47:03.969Z,22.45
2023-01-20T14:52:37.682Z,24.77
2023-01-20T14:59:06.890Z,23.10
2023-01-20T15:04:17.144Z,21.55
2023-01-20T15:09:40.661Z,26.65
2023-01-20T15:15:25.747Z,22.63
2023-01-20T15:21:00.955Z,28.00
2023-01-20T15:27:11.279Z,31.65
2023-01-20T15:32:57.428Z,30.88
2023-01-20T15:50:31.911Z,22.63
2023-01-20T15:56:57.445Z,31.25
2023-01-20T16:08:37.918Z,24.98
2023-01-20T16:13:59.005Z,27.17
2023-01-20T16:20:12.471Z,24.40
2023-01-20T16:25:26.088Z,24.52
2023-01-20T16:30:36.146Z,26.95
2023-01-20T16:35:55.356Z,28.92
2023-01-20T16:41:30.908Z,26.38
2023-01-20T16:46:37.284Z,32.92
2023-01-20T16:51:43.426Z,30.27
2023-01-20T16:56:55.117Z,23.10
2023-01-20T17:02:01.207Z,26.95
2023-01-20T17:07:10.996Z,28.55
2023-01-20T17:12:19.741Z,28.80
2023-01-20T17:17:28.355Z,32.45
2023-01-20T17:22:34.443Z,32.78
2023-01-20T17:27:43.354Z,26.33
2023-01-20T17:32:52.804Z,25.90
2023-01-20T17:37:58.730Z,27.00
2023-01-20T17:43:07.321Z,28.60
2023-01-20T17:48:13.423Z,27.95
2023-01-20T17:53:19.949Z,27.17
2023-01-20T17:58:38.051Z,30.75
2023-01-20T18:03:52.346Z,28.05
2023-01-20T18:09:04.415Z,27.85
2023-01-20T18:14:18.799Z,32.08
2023-01-20T18:19:30.049Z,32.78
2023-01-20T18:24:36.085Z,34.13
2023-01-20T18:29:45.565Z,29.52
2023-01-20T18:34:51.437Z,31.48
2023-01-20T18:40:01.486Z,28.00
2023-01-20T18:45:13.298Z,33.75
2023-01-20T18:50:20.707Z,33.20
2023-01-20T18:55:26.635Z,30.67
2023-01-20T19:00:38.682Z,33.65
2023-01-20T19:05:46.682Z,32.55
2023-01-20T19:10:52.642Z,30.02
2023-01-20T19:16:02.627Z,31.60
2023-01-20T19:21:10.569Z,27.15
2023-01-20T19:26:19.696Z,31.23
2023-01-20T19:31:28.755Z,29.25
2023-01-20T19:36:35.424Z,30.05
2023-01-20T19:42:00.926Z,32.08
2023-01-20T19:48:05.348Z,31.40
2023-01-20T20:00:08.975Z,28.33
2023-01-20T20:05:15.418Z,32.80
2023-01-20T20:33:09.016Z,31.40
2023-01-20T20:38:16.503Z,27.08
2023-01-20T20:43:25.887Z,30.70
2023-01-20T20:48:35.345Z,31.52
2023-01-20T20:53:41.312Z,33.35
2023-01-20T20:59:00.375Z,30.88
2023-01-20T21:04:10.608Z,33.97
2023-01-20T21:09:16.557Z,34.78
2023-01-20T21:14:26.388Z,42.70
2023-01-20T21:19:35.007Z,34.58
2023-01-20T21:24:40.821Z,33.67
2023-01-20T21:29:47.524Z,36.33
2023-01-20T21:34:57.532Z,36.33
2023-01-20T21:40:04.615Z,40.60
2023-01-20T21:45:20.467Z,37.38
2023-01-20T21:50:53.665Z,36.28
2023-01-20T21:56:00.059Z,40.80
2023-01-20T22:01:06.179Z,41.22
2023-01-20T22:06:15.170Z,34.20
2023-01-20T22:11:21.104Z,41.03
2023-01-20T22:16:28.454Z,40.75
2023-01-20T22:21:37.104Z,36.25
2023-01-20T22:26:43.133Z,36.05
2023-01-20T22:31:51.274Z,39.13
2023-01-20T22:37:02.571Z,32.58
2023-01-20T22:42:09.079Z,32.33
2023-01-20T22:47:15.524Z,41.22
2023-01-20T22:52:24.036Z,38.45
2023-01-20T22:57:30.343Z,33.00
2023-01-20T23:02:36.250Z,32.55
2023-01-20T23:07:45.302Z,30.52
2023-01-20T23:12:51.151Z,32.47
2023-01-20T23:17:57.256Z,33.20
2023-01-20T23:23:07.552Z,32.10
2023-01-20T23:28:13.057Z,30.15
2023-01-20T23:33:19.021Z,31.10
2023-01-20T23:38:26.937Z,28.83
2023-01-20T23:43:32.395Z,32.58
2023-01-20T23:48:38.841Z,29.98
2023-01-20T23:53:46.959Z,28.92
2023-01-20T23:58:52.270Z,34.85
